sensor_id;sensor_type;location;lat;lon;timestamp;pressure;altitude;pressure_sealevel;temperature;humidity
7297;BME280;40758;54.038;11.684;2023-02-12T00:01:40;103035.75;;;5.28;100.00
7297;BME280;40758;54.038;11.684;2023-02-12T00:04:08;103042.09;;;5.24;100.00
7297;BME280;40758;54.038;11.684;2023-02-12T00:06:37;103041.31;;;5.19;100.00
7297;BME280;40758;54.038;11.684;2023-02-12T00:09:06;103041.31;;;5.19;100.00
7297;BME280;40758;54.038;11.684;2023-02-12T00:11:34;103051.16;;;5.17;100.00
7297;BME280;40758;54.038;11.684;2023-02-12T00:14:03;103054.56;;;5.22;100.00
7297;BME280;40758;54.038;11.684;2023-02-12T00:16:32;103050.00;;;5.27;100.00
7297;BME280;40758;54.038;11.684;2023-02-12T00:19:01;103051.66;;;5.32;100.00
7297;BME280;40758;54.038;11.684;2023-02-12T00:21:30;103049.94;;;5.31;100.00
7297;BME280;40758;54.038;11.684;2023-02-12T00:23:58;103056.97;;;5.33;100.00
7297;BME280;40758;54.038;11.684;2023-02-12T00:26:27;103064.22;;;5.26;100.00
7297;BME280;40758;54.038;11.684;2023-02-12T00:28:55;103075.59;;;5.35;100.00
7297;BME280;40758;54.038;11.684;2023-02-12T00:31:26;103071.25;;;5.31;100.00
7297;BME280;40758;54.038;11.684;2023-02-12T00:33:57;103066.84;;;5.29;100.00
7297;BME280;40758;54.038;11.684;2023-02-12T00:36:29;103070.75;;;5.13;100.00
7297;BME280;40758;54.038;11.684;2023-02-12T00:38:59;103060.47;;;4.98;100.00
7297;BME280;40758;54.038;11.684;2023-02-12T00:41:30;103073.97;;;4.91;100.00
7297;BME280;40758;54.038;11.684;2023-02-12T00:43:58;103068.81;;;4.83;100.00
7297;BME280;40758;54.038;11.684;2023-02-12T00:46:27;103073.50;;;4.70;100.00
7297;BME280;40758;54.038;11.684;2023-02-12T00:48:56;103071.72;;;4.72;100.00
7297;BME280;40758;54.038;11.684;2023-02-12T00:51:24;103076.94;;;4.77;100.00
7297;BME280;40758;54.038;11.684;2023-02-12T00:53:54;103075.75;;;4.90;100.00
7297;BME280;40758;54.038;11.684;2023-02-12T00:56:22;103081.97;;;4.91;100.00
7297;BME280;40758;54.038;11.684;2023-02-12T00:58:50;103094.22;;;4.99;100.00
7297;BME280;40758;54.038;11.684;2023-02-12T01:01:19;103105.53;;;5.07;100.00
7297;BME280;40758;54.038;11.684;2023-02-12T01:03:47;103099.25;;;5.11;100.00
7297;BME280;40758;54.038;11.684;2023-02-12T01:06:16;103087.53;;;5.18;100.00
7297;BME280;40758;54.038;11.684;2023-02-12T01:08:44;103093.53;;;5.28;100.00
7297;BME280;40758;54.038;11.684;2023-02-12T01:11:14;103092.53;;;5.32;100.00
7297;BME280;40758;54.038;11.684;2023-02-12T01:13:42;103108.31;;;5.41;100.00
7297;BME280;40758;54.038;11.684;2023-02-12T01:16:14;103108.31;;;5.41;100.00
7297;BME280;40758;54.038;11.684;2023-02-12T01:18:45;103111.91;;;5.39;100.00
7297;BME280;40758;54.038;11.684;2023-02-12T01:21:17;103111.00;;;5.40;100.00
7297;BME280;40758;54.038;11.684;2023-02-12T01:23:47;103108.50;;;5.34;100.00
7297;BME280;40758;54.038;11.684;2023-02-12T01:26:18;103120.97;;;5.32;100.00
7297;BME280;40758;54.038;11.684;2023-02-12T01:28:50;103111.19;;;5.32;100.00
7297;BME280;40758;54.038;11.684;2023-02-12T01:31:21;103120.03;;;5.34;100.00
7297;BME280;40758;54.038;11.684;2023-02-12T01:33:53;103113.78;;;5.35;100.00
7297;BME280;40758;54.038;11.684;2023-02-12T01:36:22;103119.88;;;5.40;100.00
7297;BME280;40758;54.038;11.684;2023-02-12T01:38:51;103120.69;;;5.44;100.00
7297;BME280;40758;54.038;11.684;2023-02-12T01:41:23;103128.63;;;5.47;100.00
7297;BME280;40758;54.038;11.684;2023-02-12T01:44:08;103124.94;;;5.51;100.00
7297;BME280;40758;54.038;11.684;2023-02-12T01:46:38;103122.38;;;5.48;100.00
7297;BME280;40758;54.038;11.684;2023-02-12T01:49:12;103129.53;;;5.46;100.00
7297;BME280;40758;54.038;11.684;2023-02-12T01:51:45;103131.47;;;5.39;100.00
7297;BME280;40758;54.038;11.684;2023-02-12T01:54:21;103124.34;;;5.40;100.00
7297;BME280;40758;54.038;11.684;2023-02-12T01:56:53;103128.88;;;5.36;100.00
7297;BME280;40758;54.038;11.684;2023-02-12T01:59:23;103120.97;;;5.32;100.00
7297;BME280;40758;54.038;11.684;2023-02-12T02:01:53;103123.69;;;5.30;100.00
7297;BME280;40758;54.038;11.684;2023-02-12T02:04:27;103128.06;;;5.33;100.00
7297;BME280;40758;54.038;11.684;2023-02-12T02:07:11;103128.97;;;5.32;100.00
7297;BME280;40758;54.038;11.684;2023-02-12T02:09:40;103132.44;;;5.37;100.00
7297;BME280;40758;54.038;11.684;2023-02-12T02:12:10;103141.06;;;5.46;100.00
7297;BME280;40758;54.038;11.684;2023-02-12T02:15:00;103132.13;;;5.49;100.00
7297;BME280;40758;54.038;11.684;2023-02-12T02:17:46;103132.94;;;5.52;100.00
7297;BME280;40758;54.038;11.684;2023-02-12T02:24:02;103114.09;;;5.60;100.00
7297;BME280;40758;54.038;11.684;2023-02-12T02:27:17;103114.75;;;5.68;100.00
7297;BME280;40758;54.038;11.684;2023-02-12T02:32:55;103123.69;;;5.67;100.00
7297;BME280;40758;54.038;11.684;2023-02-12T02:35:31;103124.59;;;5.66;100.00
7297;BME280;40758;54.038;11.684;2023-02-12T02:38:17;103127.13;;;5.70;100.00
7297;BME280;40758;54.038;11.684;2023-02-12T02:40:59;103128.81;;;5.75;100.00
7297;BME280;40758;54.038;11.684;2023-02-12T02:43:34;103133.25;;;5.74;100.00
7297;BME280;40758;54.038;11.684;2023-02-12T02:46:09;103113.78;;;5.72;100.00
7297;BME280;40758;54.038;11.684;2023-02-12T02:48:46;103120.94;;;5.70;100.00
7297;BME280;40758;54.038;11.684;2023-02-12T02:51:21;103126.22;;;5.72;100.00
7297;BME280;40758;54.038;11.684;2023-02-12T02:53:59;103132.50;;;5.69;100.00
7297;BME280;40758;54.038;11.684;2023-02-12T02:56:33;103132.41;;;5.74;100.00
7297;BME280;40758;54.038;11.684;2023-02-12T02:59:04;103136.09;;;5.68;100.00
7297;BME280;40758;54.038;11.684;2023-02-12T03:01:42;103138.00;;;5.63;100.00
7297;BME280;40758;54.038;11.684;2023-02-12T03:04:20;103138.09;;;5.60;100.00
7297;BME280;40758;54.038;11.684;2023-02-12T03:07:00;103138.09;;;5.58;100.00
7297;BME280;40758;54.038;11.684;2023-02-12T03:09:36;103132.91;;;5.54;100.00
7297;BME280;40758;54.038;11.684;2023-02-12T03:12:10;103137.50;;;5.47;100.00
7297;BME280;40758;54.038;11.684;2023-02-12T03:14:46;103136.75;;;5.41;100.00
7297;BME280;40758;54.038;11.684;2023-02-12T03:17:19;103138.66;;;5.36;100.00
7297;BME280;40758;54.038;11.684;2023-02-12T03:19:57;103135.13;;;5.35;100.00
7297;BME280;40758;54.038;11.684;2023-02-12T03:22:30;103136.94;;;5.33;100.00
7297;BME280;40758;54.038;11.684;2023-02-12T03:25:07;103142.28;;;5.32;100.00
7297;BME280;40758;54.038;11.684;2023-02-12T03:27:42;103144.06;;;5.33;100.00
7297;BME280;40758;54.038;11.684;2023-02-12T03:30:13;103145.91;;;5.31;100.00
7297;BME280;40758;54.038;11.684;2023-02-12T03:32:54;103140.66;;;5.26;100.00
7297;BME280;40758;54.038;11.684;2023-02-12T03:35:32;103146.94;;;5.23;100.00
7297;BME280;40758;54.038;11.684;2023-02-12T03:38:08;103143.31;;;5.26;100.00
7297;BME280;40758;54.038;11.684;2023-02-12T03:40:49;103149.59;;;5.23;100.00
7297;BME280;40758;54.038;11.684;2023-02-12T03:43:27;103152.22;;;5.25;100.00
7297;BME280;40758;54.038;11.684;2023-02-12T03:46:04;103149.53;;;5.26;100.00
7297;BME280;40758;54.038;11.684;2023-02-12T03:48:41;103161.00;;;5.30;100.00
7297;BME280;40758;54.038;11.684;2023-02-12T03:51:23;103160.13;;;5.29;100.00
7297;BME280;40758;54.038;11.684;2023-02-12T03:53:54;103160.94;;;5.32;100.00
7297;BME280;40758;54.038;11.684;2023-02-12T03:56:28;103168.16;;;5.28;100.00
7297;BME280;40758;54.038;11.684;2023-02-12T03:58:59;103168.03;;;5.33;100.00
7297;BME280;40758;54.038;11.684;2023-02-12T04:01:28;103161.88;;;5.31;100.00
7297;BME280;40758;54.038;11.684;2023-02-12T04:03:57;103166.38;;;5.28;100.00
7297;BME280;40758;54.038;11.684;2023-02-12T04:06:28;103173.50;;;5.26;100.00
7297;BME280;40758;54.038;11.684;2023-02-12T04:09:03;103174.38;;;5.27;100.00
7297;BME280;40758;54.038;11.684;2023-02-12T04:11:44;103176.19;;;5.26;100.00
7297;BME280;40758;54.038;11.684;2023-02-12T04:14:24;103169.09;;;5.25;100.00
7297;BME280;40758;54.038;11.684;2023-02-12T04:17:02;103169.81;;;5.32;100.00
7297;BME280;40758;54.038;11.684;2023-02-12T04:19:53;103174.38;;;5.28;100.00
7297;BME280;40758;54.038;11.684;2023-02-12T04:22:44;103184.03;;;5.33;100.00
7297;BME280;40758;54.038;11.684;2023-02-12T04:25:26;103174.19;;;5.36;100.00
7297;BME280;40758;54.038;11.684;2023-02-12T04:28:11;103172.41;;;5.37;100.00
7297;BME280;40758;54.038;11.684;2023-02-12T04:30:53;103191.91;;;5.39;100.00
7297;BME280;40758;54.038;11.684;2023-02-12T04:33:27;103191.16;;;5.32;100.00
7297;BME280;40758;54.038;11.684;2023-02-12T04:36:05;103194.69;;;5.33;100.00
7297;BME280;40758;54.038;11.684;2023-02-12T04:38:40;103192.91;;;5.33;100.00
7297;BME280;40758;54.038;11.684;2023-02-12T04:41:13;103193.81;;;5.32;100.00
7297;BME280;40758;54.038;11.684;2023-02-12T04:43:42;103205.31;;;5.36;100.00
7297;BME280;40758;54.038;11.684;2023-02-12T04:46:10;103207.00;;;5.38;100.00
7297;BME280;40758;54.038;11.684;2023-02-12T04:48:51;103208.78;;;5.38;100.00
7297;BME280;40758;54.038;11.684;2023-02-12T04:51:20;103204.41;;;5.37;100.00
7297;BME280;40758;54.038;11.684;2023-02-12T04:53:50;103206.09;;;5.39;100.00
7297;BME280;40758;54.038;11.684;2023-02-12T04:56:18;103209.66;;;5.40;100.00
7297;BME280;40758;54.038;11.684;2023-02-12T04:58:47;103212.28;;;5.41;100.00
7297;BME280;40758;54.038;11.684;2023-02-12T05:01:16;103207.06;;;5.37;100.00
7297;BME280;40758;54.038;11.684;2023-02-12T05:03:44;103211.47;;;5.38;100.00
7297;BME280;40758;54.038;11.684;2023-02-12T05:06:14;103202.59;;;5.37;100.00
7297;BME280;40758;54.038;11.684;2023-02-12T05:08:42;103208.84;;;5.36;100.00
7297;BME280;40758;54.038;11.684;2023-02-12T05:11:13;103216.84;;;5.36;100.00
7297;BME280;40758;54.038;11.684;2023-02-12T05:13:42;103213.31;;;5.36;100.00
7297;BME280;40758;54.038;11.684;2023-02-12T05:16:10;103217.75;;;5.35;100.00
7297;BME280;40758;54.038;11.684;2023-02-12T05:18:39;103217.72;;;5.37;100.00
7297;BME280;40758;54.038;11.684;2023-02-12T05:21:07;103219.53;;;5.35;100.00
7297;BME280;40758;54.038;11.684;2023-02-12T05:23:37;103222.22;;;5.33;100.00
7297;BME280;40758;54.038;11.684;2023-02-12T05:26:11;103226.66;;;5.34;100.00
7297;BME280;40758;54.038;11.684;2023-02-12T05:28:41;103232.03;;;5.33;100.00
7297;BME280;40758;54.038;11.684;2023-02-12T05:31:13;103227.59;;;5.32;100.00
7297;BME280;40758;54.038;11.684;2023-02-12T05:33:48;103222.25;;;5.32;100.00
7297;BME280;40758;54.038;11.684;2023-02-12T05:36:19;103224.94;;;5.32;100.00
7297;BME280;40758;54.038;11.684;2023-02-12T05:38:51;103221.34;;;5.34;100.00
7297;BME280;40758;54.038;11.684;2023-02-12T05:41:22;103224.91;;;5.33;100.00
7297;BME280;40758;54.038;11.684;2023-02-12T05:43:53;103224.16;;;5.26;100.00
7297;BME280;40758;54.038;11.684;2023-02-12T05:46:23;103217.00;;;5.30;100.00
7297;BME280;40758;54.038;11.684;2023-02-12T05:48:51;103219.56;;;5.33;100.00
7297;BME280;40758;54.038;11.684;2023-02-12T05:51:23;103225.06;;;5.25;100.00
7297;BME280;40758;54.038;11.684;2023-02-12T05:53:57;103231.28;;;5.26;100.00
7297;BME280;40758;54.038;11.684;2023-02-12T05:56:28;103228.56;;;5.27;100.00
7297;BME280;40758;54.038;11.684;2023-02-12T05:59:02;103226.00;;;5.24;100.00
7297;BME280;40758;54.038;11.684;2023-02-12T06:01:34;103223.28;;;5.26;100.00
7297;BME280;40758;54.038;11.684;2023-02-12T06:04:05;103227.72;;;5.25;100.00
7297;BME280;40758;54.038;11.684;2023-02-12T06:06:35;103230.50;;;5.21;100.00
7297;BME280;40758;54.038;11.684;2023-02-12T06:09:03;103236.78;;;5.18;100.00
7297;BME280;40758;54.038;11.684;2023-02-12T06:11:31;103241.19;;;5.19;100.00
7297;BME280;40758;54.038;11.684;2023-02-12T06:14:03;103235.03;;;5.17;100.00
7297;BME280;40758;54.038;11.684;2023-02-12T06:16:33;103239.41;;;5.20;100.00
7297;BME280;40758;54.038;11.684;2023-02-12T06:19:04;103239.31;;;5.24;100.00
7297;BME280;40758;54.038;11.684;2023-02-12T06:21:33;103236.72;;;5.21;100.00
7297;BME280;40758;54.038;11.684;2023-02-12T06:24:02;103234.94;;;5.20;100.00
7297;BME280;40758;54.038;11.684;2023-02-12T06:26:31;103233.19;;;5.19;100.00
7297;BME280;40758;54.038;11.684;2023-02-12T06:29:02;103244.81;;;5.17;100.00
7297;BME280;40758;54.038;11.684;2023-02-12T06:31:34;103242.16;;;5.15;100.00
7297;BME280;40758;54.038;11.684;2023-02-12T06:34:04;103243.94;;;5.16;100.00
7297;BME280;40758;54.038;11.684;2023-02-12T06:36:34;103242.97;;;5.19;100.00
7297;BME280;40758;54.038;11.684;2023-02-12T06:39:03;103255.44;;;5.18;100.00
7297;BME280;40758;54.038;11.684;2023-02-12T06:41:32;103258.88;;;5.23;100.00
7297;BME280;40758;54.038;11.684;2023-02-12T06:44:03;103267.69;;;5.25;100.00
7297;BME280;40758;54.038;11.684;2023-02-12T06:46:31;103270.38;;;5.25;100.00
7297;BME280;40758;54.038;11.684;2023-02-12T06:49:00;103273.03;;;5.25;100.00
7297;BME280;40758;54.038;11.684;2023-02-12T06:51:29;103280.13;;;5.26;100.00
7297;BME280;40758;54.038;11.684;2023-02-12T06:53:58;103283.75;;;5.24;100.00
7297;BME280;40758;54.038;11.684;2023-02-12T06:56:27;103282.81;;;5.25;100.00
7297;BME280;40758;54.038;11.684;2023-02-12T06:58:58;103290.00;;;5.21;100.00
7297;BME280;40758;54.038;11.684;2023-02-12T07:01:29;103291.81;;;5.19;100.00
7297;BME280;40758;54.038;11.684;2023-02-12T07:04:01;103293.66;;;5.17;100.00
7297;BME280;40758;54.038;11.684;2023-02-12T07:06:33;103300.75;;;5.18;100.00
7297;BME280;40758;54.038;11.684;2023-02-12T07:09:04;103297.97;;;5.23;100.00
7297;BME280;40758;54.038;11.684;2023-02-12T07:11:35;103295.28;;;5.24;100.00
7297;BME280;40758;54.038;11.684;2023-02-12T07:14:04;103302.31;;;5.28;100.00
7297;BME280;40758;54.038;11.684;2023-02-12T07:16:35;103301.44;;;5.28;100.00
7297;BME280;40758;54.038;11.684;2023-02-12T07:19:03;103299.69;;;5.25;100.00
7297;BME280;40758;54.038;11.684;2023-02-12T07:21:32;103306.78;;;5.26;100.00
7297;BME280;40758;54.038;11.684;2023-02-12T07:24:01;103309.44;;;5.26;100.00
7297;BME280;40758;54.038;11.684;2023-02-12T07:26:29;103312.13;;;5.25;100.00
7297;BME280;40758;54.038;11.684;2023-02-12T07:28:57;103316.63;;;5.24;100.00
7297;BME280;40758;54.038;11.684;2023-02-12T07:31:26;103305.06;;;5.24;100.00
7297;BME280;40758;54.038;11.684;2023-02-12T07:33:57;103316.63;;;5.24;100.00
7297;BME280;40758;54.038;11.684;2023-02-12T07:36:29;103304.09;;;5.28;100.00
7297;BME280;40758;54.038;11.684;2023-02-12T07:38:59;103316.41;;;5.34;100.00
7297;BME280;40758;54.038;11.684;2023-02-12T07:41:30;103311.84;;;5.40;100.00
7297;BME280;40758;54.038;11.684;2023-02-12T07:44:01;103322.28;;;5.51;100.00
7297;BME280;40758;54.038;11.684;2023-02-12T07:46:35;103333.63;;;5.60;100.00
7297;BME280;40758;54.038;11.684;2023-02-12T07:49:09;103328.19;;;5.65;100.00
7297;BME280;40758;54.038;11.684;2023-02-12T07:51:39;103330.72;;;5.73;100.00
7297;BME280;40758;54.038;11.684;2023-02-12T07:54:09;103334.13;;;5.79;100.00
7297;BME280;40758;54.038;11.684;2023-02-12T07:56:40;103341.09;;;5.86;100.00
7297;BME280;40758;54.038;11.684;2023-02-12T07:59:12;103341.88;;;5.91;100.00
7297;BME280;40758;54.038;11.684;2023-02-12T08:01:44;103336.41;;;5.97;100.00
7297;BME280;40758;54.038;11.684;2023-02-12T08:04:18;103346.03;;;6.04;100.00
7297;BME280;40758;54.038;11.684;2023-02-12T08:06:49;103348.56;;;6.11;100.00
7297;BME280;40758;54.038;11.684;2023-02-12T08:09:21;103352.94;;;6.13;100.00
7297;BME280;40758;54.038;11.684;2023-02-12T08:11:50;103358.13;;;6.19;100.00
7297;BME280;40758;54.038;11.684;2023-02-12T08:14:20;103358.84;;;6.27;100.00
7297;BME280;40758;54.038;11.684;2023-02-12T08:16:49;103362.31;;;6.31;100.00
7297;BME280;40758;54.038;11.684;2023-02-12T08:19:20;103357.03;;;6.29;100.00
7297;BME280;40758;54.038;11.684;2023-02-12T08:21:54;103367.72;;;6.28;100.00
7297;BME280;40758;54.038;11.684;2023-02-12T08:24:24;103364.91;;;6.34;100.00
7297;BME280;40758;54.038;11.684;2023-02-12T08:26:52;103360.22;;;6.43;100.00
7297;BME280;40758;54.038;11.684;2023-02-12T08:29:24;103358.56;;;6.38;100.00
7297;BME280;40758;54.038;11.684;2023-02-12T08:31:56;103356.97;;;6.31;100.00
7297;BME280;40758;54.038;11.684;2023-02-12T08:34:30;103356.81;;;6.37;100.00
7297;BME280;40758;54.038;11.684;2023-02-12T08:36:59;103358.53;;;6.41;100.00
7297;BME280;40758;54.038;11.684;2023-02-12T08:39:30;103362.97;;;6.40;100.00
7297;BME280;40758;54.038;11.684;2023-02-12T08:41:59;103360.50;;;6.31;100.00
7297;BME280;40758;54.038;11.684;2023-02-12T08:44:28;103360.34;;;6.39;100.00
7297;BME280;40758;54.038;11.684;2023-02-12T08:46:57;103370.25;;;6.34;100.00
7297;BME280;40758;54.038;11.684;2023-02-12T08:49:29;103373.09;;;6.26;100.00
7297;BME280;40758;54.038;11.684;2023-02-12T08:51:59;103364.25;;;6.24;100.00
7297;BME280;40758;54.038;11.684;2023-02-12T08:54:29;103367.66;;;6.31;100.00
7297;BME280;40758;54.038;11.684;2023-02-12T08:57:01;103360.66;;;6.25;100.00
7297;BME280;40758;54.038;11.684;2023-02-12T08:59:30;103365.97;;;6.27;100.00
7297;BME280;40758;54.038;11.684;2023-02-12T09:01:58;103358.72;;;6.32;100.00
7297;BME280;40758;54.038;11.684;2023-02-12T09:04:30;103363.88;;;6.41;100.00
7297;BME280;40758;54.038;11.684;2023-02-12T09:06:58;103371.75;;;6.45;100.00
7297;BME280;40758;54.038;11.684;2023-02-12T09:09:28;103363.78;;;6.44;100.00
7297;BME280;40758;54.038;11.684;2023-02-12T09:11:56;103381.41;;;6.51;100.00
7297;BME280;40758;54.038;11.684;2023-02-12T09:14:25;103378.63;;;6.56;100.00
7297;BME280;40758;54.038;11.684;2023-02-12T09:16:54;103378.13;;;6.75;100.00
7297;BME280;40758;54.038;11.684;2023-02-12T09:19:24;103374.28;;;6.85;100.00
7297;BME280;40758;54.038;11.684;2023-02-12T09:21:55;103381.13;;;6.97;100.00
7297;BME280;40758;54.038;11.684;2023-02-12T09:24:24;103378.25;;;7.05;100.00
7297;BME280;40758;54.038;11.684;2023-02-12T09:26:54;103383.59;;;7.05;100.00
7297;BME280;40758;54.038;11.684;2023-02-12T09:29:22;103380.81;;;7.09;100.00
7297;BME280;40758;54.038;11.684;2023-02-12T09:31:51;103382.66;;;7.07;100.00
7297;BME280;40758;54.038;11.684;2023-02-12T09:34:19;103388.59;;;7.17;100.00
7297;BME280;40758;54.038;11.684;2023-02-12T09:36:48;103379.84;;;7.12;100.00
7297;BME280;40758;54.038;11.684;2023-02-12T09:39:18;103388.59;;;7.17;100.00
7297;BME280;40758;54.038;11.684;2023-02-12T09:42:18;103385.41;;;7.37;100.00
7297;BME280;40758;54.038;11.684;2023-02-12T09:44:58;103393.88;;;7.52;100.00
7297;BME280;40758;54.038;11.684;2023-02-12T09:47:37;103390.94;;;7.61;100.00
7297;BME280;40758;54.038;11.684;2023-02-12T09:50:23;103403.03;;;7.75;100.00
7297;BME280;40758;54.038;11.684;2023-02-12T09:52:55;103402.31;;;7.69;100.00
7297;BME280;40758;54.038;11.684;2023-02-12T09:55:32;103401.31;;;7.72;100.00
7297;BME280;40758;54.038;11.684;2023-02-12T09:58:09;103401.47;;;7.67;100.00
7297;BME280;40758;54.038;11.684;2023-02-12T10:00:40;103396.03;;;7.70;100.00
7297;BME280;40758;54.038;11.684;2023-02-12T10:03:14;103401.84;;;7.85;100.00
7297;BME280;40758;54.038;11.684;2023-02-12T10:05:48;103399.53;;;7.72;100.00
7297;BME280;40758;54.038;11.684;2023-02-12T10:08:34;103402.09;;;7.77;100.00
7297;BME280;40758;54.038;11.684;2023-02-12T10:11:29;103401.81;;;7.86;100.00
7297;BME280;40758;54.038;11.684;2023-02-12T10:14:23;103406.06;;;7.93;100.00
7297;BME280;40758;54.038;11.684;2023-02-12T10:17:04;103401.59;;;7.94;100.00
7297;BME280;40758;54.038;11.684;2023-02-12T10:20:04;103406.59;;;8.04;100.00
7297;BME280;40758;54.038;11.684;2023-02-12T10:22:49;103402.06;;;8.08;100.00
7297;BME280;40758;54.038;11.684;2023-02-12T10:25:34;103393.69;;;8.19;100.00
7297;BME280;40758;54.038;11.684;2023-02-12T10:28:13;103403.94;;;8.34;100.00
7297;BME280;40758;54.038;11.684;2023-02-12T10:30:52;103396.69;;;8.37;100.00
7297;BME280;40758;54.038;11.684;2023-02-12T10:33:28;103397.00;;;8.27;100.00
7297;BME280;40758;54.038;11.684;2023-02-12T10:36:13;103400.38;;;8.04;100.00
7297;BME280;40758;54.038;11.684;2023-02-12T10:38:51;103401.22;;;8.06;100.00
7297;BME280;40758;54.038;11.684;2023-02-12T10:41:23;103391.59;;;7.99;100.00
7297;BME280;40758;54.038;11.684;2023-02-12T10:43:56;103395.72;;;8.10;100.00
7297;BME280;40758;54.038;11.684;2023-02-12T10:46:29;103397.50;;;8.10;100.00
7297;BME280;40758;54.038;11.684;2023-02-12T10:48:59;103388.31;;;8.19;100.00
7297;BME280;40758;54.038;11.684;2023-02-12T10:54:37;103384.41;;;8.01;100.00
7297;BME280;40758;54.038;11.684;2023-02-12T10:57:16;103387.13;;;7.99;100.00
7297;BME280;40758;54.038;11.684;2023-02-12T10:59:49;103374.31;;;8.09;100.00
7297;BME280;40758;54.038;11.684;2023-02-12T11:02:26;103354.53;;;8.15;100.00
7297;BME280;40758;54.038;11.684;2023-02-12T11:04:57;103382.31;;;8.10;100.00
7297;BME280;40758;54.038;11.684;2023-02-12T11:07:27;103379.13;;;7.98;100.00
7297;BME280;40758;54.038;11.684;2023-02-12T11:09:56;103367.13;;;7.83;100.00
7297;BME280;40758;54.038;11.684;2023-02-12T11:12:32;103377.00;;;7.80;100.00
7297;BME280;40758;54.038;11.684;2023-02-12T11:15:13;103377.19;;;8.03;100.00
7297;BME280;40758;54.038;11.684;2023-02-12T11:17:54;103369.22;;;8.01;100.00
7297;BME280;40758;54.038;11.684;2023-02-12T11:20:26;103373.41;;;8.10;100.00
7297;BME280;40758;54.038;11.684;2023-02-12T11:22:59;103372.72;;;8.03;100.00
7297;BME280;40758;54.038;11.684;2023-02-12T11:25:30;103368.16;;;8.07;100.00
7297;BME280;40758;54.038;11.684;2023-02-12T11:28:19;103364.03;;;8.25;100.00
7297;BME280;40758;54.038;11.684;2023-02-12T11:30:52;103351.91;;;8.13;100.00
7297;BME280;40758;54.038;11.684;2023-02-12T11:33:27;103364.84;;;7.99;100.00
7297;BME280;40758;54.038;11.684;2023-02-12T11:36:01;103358.00;;;8.18;100.00
7297;BME280;40758;54.038;11.684;2023-02-12T11:38:38;103359.34;;;8.33;100.00
7297;BME280;40758;54.038;11.684;2023-02-12T11:41:22;103356.06;;;8.22;100.00
7297;BME280;40758;54.038;11.684;2023-02-12T11:43:52;103358.63;;;8.26;100.00
7297;BME280;40758;54.038;11.684;2023-02-12T11:46:24;103356.41;;;8.40;100.00
7297;BME280;40758;54.038;11.684;2023-02-12T11:48:56;103352.84;;;8.40;100.00
7297;BME280;40758;54.038;11.684;2023-02-12T11:51:30;103340.00;;;8.51;100.00
7297;BME280;40758;54.038;11.684;2023-02-12T11:54:02;103357.13;;;8.72;100.00
7297;BME280;40758;54.038;11.684;2023-02-12T11:56:45;103347.25;;;8.74;100.00
7297;BME280;40758;54.038;11.684;2023-02-12T11:59:30;103349.06;;;8.73;100.00
7297;BME280;40758;54.038;11.684;2023-02-12T12:02:16;103338.66;;;8.89;100.00
7297;BME280;40758;54.038;11.684;2023-02-12T12:04:51;103336.22;;;8.57;100.00
7297;BME280;40758;54.038;11.684;2023-02-12T12:07:27;103335.09;;;8.64;100.00
7297;BME280;40758;54.038;11.684;2023-02-12T12:10:04;103350.13;;;8.68;100.00
7297;BME280;40758;54.038;11.684;2023-02-12T12:12:41;103342.97;;;8.68;100.00
7297;BME280;40758;54.038;11.684;2023-02-12T12:15:21;103324.72;;;8.79;100.00
7297;BME280;40758;54.038;11.684;2023-02-12T12:18:34;103335.28;;;8.84;100.00
7297;BME280;40758;54.038;11.684;2023-02-12T12:21:33;103332.69;;;9.07;100.00
7297;BME280;40758;54.038;11.684;2023-02-12T12:24:11;103338.03;;;9.07;100.00
7297;BME280;40758;54.038;11.684;2023-02-12T12:26:49;103335.41;;;9.30;100.00
7297;BME280;40758;54.038;11.684;2023-02-12T12:29:41;103325.69;;;9.26;100.00
7297;BME280;40758;54.038;11.684;2023-02-12T12:32:17;103332.13;;;9.22;100.00
7297;BME280;40758;54.038;11.684;2023-02-12T12:34:49;103314.91;;;9.28;100.00
7297;BME280;40758;54.038;11.684;2023-02-12T12:37:30;103318.94;;;9.40;100.00
7297;BME280;40758;54.038;11.684;2023-02-12T12:40:25;103311.81;;;9.39;100.00
7297;BME280;40758;54.038;11.684;2023-02-12T12:43:07;103315.00;;;9.50;100.00
7297;BME280;40758;54.038;11.684;2023-02-12T12:46:30;103315.34;;;9.41;100.00
7297;BME280;40758;54.038;11.684;2023-02-12T12:49:33;103316.84;;;9.71;100.00
7297;BME280;40758;54.038;11.684;2023-02-12T12:52:34;103307.88;;;9.72;100.00
7297;BME280;40758;54.038;11.684;2023-02-12T12:55:33;103306.63;;;9.57;100.00
7297;BME280;40758;54.038;11.684;2023-02-12T12:58:17;103302.28;;;9.55;100.00
7297;BME280;40758;54.038;11.684;2023-02-12T13:01:09;103305.91;;;9.54;100.00
7297;BME280;40758;54.038;11.684;2023-02-12T13:04:03;103310.06;;;9.84;100.00
7297;BME280;40758;54.038;11.684;2023-02-12T13:07:06;103309.25;;;9.82;100.00
7297;BME280;40758;54.038;11.684;2023-02-12T13:10:05;103302.16;;;9.58;100.00
7297;BME280;40758;54.038;11.684;2023-02-12T13:13:01;103291.47;;;9.80;100.00
7297;BME280;40758;54.038;11.684;2023-02-12T13:15:42;103303.78;;;9.85;100.00
7297;BME280;40758;54.038;11.684;2023-02-12T13:18:22;103299.31;;;9.62;100.00
7297;BME280;40758;54.038;11.684;2023-02-12T13:21:03;103294.94;;;9.60;100.00
7297;BME280;40758;54.038;11.684;2023-02-12T13:23:42;103289.97;;;9.72;100.00
7297;BME280;40758;54.038;11.684;2023-02-12T13:26:23;103298.41;;;9.85;100.00
7297;BME280;40758;54.038;11.684;2023-02-12T13:29:04;103279.81;;;9.57;100.00
7297;BME280;40758;54.038;11.684;2023-02-12T13:31:43;103280.97;;;9.73;100.00
7297;BME280;40758;54.038;11.684;2023-02-12T13:34:17;103283.97;;;9.88;100.00
7297;BME280;40758;54.038;11.684;2023-02-12T13:36:48;103287.22;;;9.96;100.00
7297;BME280;40758;54.038;11.684;2023-02-12T13:39:26;103277.22;;;9.78;100.00